sensor_id;sensor_type;location;lat;lon;timestamp;P1;durP1;ratioP1;P2;durP2;ratioP2
10295;SDS011;5193;51.032;6.356;2023-10-31T00:01:46;2.60;;;2.40;;
10295;SDS011;5193;51.032;6.356;2023-10-31T00:04:14;3.90;;;3.50;;
10295;SDS011;5193;51.032;6.356;2023-10-31T00:06:42;4.83;;;2.87;;
10295;SDS011;5193;51.032;6.356;2023-10-31T00:09:09;4.53;;;2.93;;
10295;SDS011;5193;51.032;6.356;2023-10-31T00:11:39;3.83;;;3.30;;
10295;SDS011;5193;51.032;6.356;2023-10-31T00:14:06;4.50;;;3.80;;
10295;SDS011;5193;51.032;6.356;2023-10-31T00:16:33;5.37;;;3.47;;
10295;SDS011;5193;51.032;6.356;2023-10-31T00:19:02;4.13;;;3.73;;
10295;SDS011;5193;51.032;6.356;2023-10-31T00:21:28;3.90;;;3.43;;
10295;SDS011;5193;51.032;6.356;2023-10-31T00:23:55;3.87;;;3.47;;
10295;SDS011;5193;51.032;6.356;2023-10-31T00:26:21;3.10;;;2.70;;
10295;SDS011;5193;51.032;6.356;2023-10-31T00:28:56;3.67;;;2.60;;
10295;SDS011;5193;51.032;6.356;2023-10-31T00:31:23;5.60;;;3.50;;
10295;SDS011;5193;51.032;6.356;2023-10-31T00:33:49;4.37;;;3.17;;
10295;SDS011;5193;51.032;6.356;2023-10-31T00:36:15;2.80;;;2.20;;
10295;SDS011;5193;51.032;6.356;2023-10-31T00:38:40;3.83;;;1.90;;
10295;SDS011;5193;51.032;6.356;2023-10-31T00:41:06;2.63;;;1.77;;
10295;SDS011;5193;51.032;6.356;2023-10-31T00:43:32;2.57;;;1.73;;
10295;SDS011;5193;51.032;6.356;2023-10-31T00:45:58;4.23;;;1.73;;
10295;SDS011;5193;51.032;6.356;2023-10-31T00:48:24;4.33;;;2.30;;
10295;SDS011;5193;51.032;6.356;2023-10-31T00:50:50;5.20;;;2.37;;
10295;SDS011;5193;51.032;6.356;2023-10-31T00:53:17;3.07;;;2.10;;
10295;SDS011;5193;51.032;6.356;2023-10-31T00:55:44;3.87;;;2.20;;
10295;SDS011;5193;51.032;6.356;2023-10-31T00:58:11;3.40;;;2.30;;
10295;SDS011;5193;51.032;6.356;2023-10-31T01:00:42;4.60;;;2.27;;
10295;SDS011;5193;51.032;6.356;2023-10-31T01:03:09;3.83;;;2.43;;
10295;SDS011;5193;51.032;6.356;2023-10-31T01:05:35;4.63;;;2.77;;
10295;SDS011;5193;51.032;6.356;2023-10-31T01:08:03;3.80;;;2.37;;
10295;SDS011;5193;51.032;6.356;2023-10-31T01:10:28;5.53;;;2.53;;
10295;SDS011;5193;51.032;6.356;2023-10-31T01:12:57;6.10;;;2.60;;
10295;SDS011;5193;51.032;6.356;2023-10-31T01:15:23;5.50;;;3.37;;
10295;SDS011;5193;51.032;6.356;2023-10-31T01:17:51;5.63;;;3.00;;
10295;SDS011;5193;51.032;6.356;2023-10-31T01:20:16;4.30;;;2.87;;
10295;SDS011;5193;51.032;6.356;2023-10-31T01:22:45;6.10;;;2.80;;
10295;SDS011;5193;51.032;6.356;2023-10-31T01:25:11;7.17;;;2.83;;
10295;SDS011;5193;51.032;6.356;2023-10-31T01:27:38;4.80;;;2.43;;
10295;SDS011;5193;51.032;6.356;2023-10-31T01:30:04;4.30;;;2.70;;
10295;SDS011;5193;51.032;6.356;2023-10-31T01:32:35;5.17;;;2.70;;
10295;SDS011;5193;51.032;6.356;2023-10-31T01:35:06;3.73;;;2.60;;
10295;SDS011;5193;51.032;6.356;2023-10-31T01:37:32;4.00;;;3.00;;
10295;SDS011;5193;51.032;6.356;2023-10-31T01:39:58;5.53;;;3.07;;
10295;SDS011;5193;51.032;6.356;2023-10-31T01:42:27;5.27;;;2.80;;
10295;SDS011;5193;51.032;6.356;2023-10-31T01:44:54;4.77;;;3.40;;
10295;SDS011;5193;51.032;6.356;2023-10-31T01:47:20;6.37;;;3.40;;
10295;SDS011;5193;51.032;6.356;2023-10-31T01:49:47;6.53;;;3.13;;
10295;SDS011;5193;51.032;6.356;2023-10-31T01:52:13;4.30;;;3.23;;
10295;SDS011;5193;51.032;6.356;2023-10-31T01:54:43;7.30;;;3.50;;
10295;SDS011;5193;51.032;6.356;2023-10-31T01:57:11;4.77;;;3.40;;
10295;SDS011;5193;51.032;6.356;2023-10-31T01:59:38;5.27;;;3.77;;
10295;SDS011;5193;51.032;6.356;2023-10-31T02:02:05;7.60;;;4.00;;
10295;SDS011;5193;51.032;6.356;2023-10-31T02:04:32;8.10;;;3.80;;
10295;SDS011;5193;51.032;6.356;2023-10-31T02:06:58;5.73;;;3.73;;
10295;SDS011;5193;51.032;6.356;2023-10-31T02:09:27;10.90;;;4.20;;
10295;SDS011;5193;51.032;6.356;2023-10-31T02:11:56;8.63;;;4.53;;
10295;SDS011;5193;51.032;6.356;2023-10-31T02:14:24;6.90;;;4.00;;
10295;SDS011;5193;51.032;6.356;2023-10-31T02:16:50;6.57;;;4.27;;
10295;SDS011;5193;51.032;6.356;2023-10-31T02:19:20;6.63;;;4.03;;
10295;SDS011;5193;51.032;6.356;2023-10-31T02:21:46;7.47;;;4.30;;
10295;SDS011;5193;51.032;6.356;2023-10-31T02:24:14;7.30;;;3.60;;
10295;SDS011;5193;51.032;6.356;2023-10-31T02:26:40;6.47;;;3.83;;
10295;SDS011;5193;51.032;6.356;2023-10-31T02:29:08;5.57;;;3.63;;
10295;SDS011;5193;51.032;6.356;2023-10-31T02:31:34;5.77;;;3.67;;
10295;SDS011;5193;51.032;6.356;2023-10-31T02:34:00;4.83;;;3.43;;
10295;SDS011;5193;51.032;6.356;2023-10-31T02:36:25;6.03;;;3.87;;
10295;SDS011;5193;51.032;6.356;2023-10-31T02:38:51;4.50;;;3.27;;
10295;SDS011;5193;51.032;6.356;2023-10-31T02:41:17;5.80;;;3.50;;
10295;SDS011;5193;51.032;6.356;2023-10-31T02:43:42;12.07;;;3.20;;
10295;SDS011;5193;51.032;6.356;2023-10-31T02:46:08;4.57;;;3.30;;
10295;SDS011;5193;51.032;6.356;2023-10-31T02:48:37;4.57;;;3.23;;
10295;SDS011;5193;51.032;6.356;2023-10-31T02:51:07;4.90;;;3.07;;
10295;SDS011;5193;51.032;6.356;2023-10-31T02:53:33;7.20;;;3.50;;
10295;SDS011;5193;51.032;6.356;2023-10-31T02:55:59;8.13;;;3.40;;
10295;SDS011;5193;51.032;6.356;2023-10-31T02:58:25;5.47;;;2.67;;
10295;SDS011;5193;51.032;6.356;2023-10-31T03:00:51;4.27;;;2.80;;
10295;SDS011;5193;51.032;6.356;2023-10-31T03:03:16;6.17;;;2.70;;
10295;SDS011;5193;51.032;6.356;2023-10-31T03:05:42;2.80;;;2.30;;
10295;SDS011;5193;51.032;6.356;2023-10-31T03:08:09;6.17;;;2.83;;
10295;SDS011;5193;51.032;6.356;2023-10-31T03:10:37;3.23;;;2.30;;
10295;SDS011;5193;51.032;6.356;2023-10-31T03:13:03;4.30;;;2.17;;
10295;SDS011;5193;51.032;6.356;2023-10-31T03:15:32;3.60;;;2.20;;
10295;SDS011;5193;51.032;6.356;2023-10-31T03:17:57;2.63;;;1.80;;
10295;SDS011;5193;51.032;6.356;2023-10-31T03:20:23;2.90;;;2.17;;
10295;SDS011;5193;51.032;6.356;2023-10-31T03:22:49;4.30;;;2.00;;
10295;SDS011;5193;51.032;6.356;2023-10-31T03:25:15;4.07;;;2.10;;
10295;SDS011;5193;51.032;6.356;2023-10-31T03:27:43;3.50;;;2.00;;
10295;SDS011;5193;51.032;6.356;2023-10-31T03:30:09;4.43;;;2.00;;
10295;SDS011;5193;51.032;6.356;2023-10-31T03:32:39;2.67;;;1.90;;
10295;SDS011;5193;51.032;6.356;2023-10-31T03:35:08;2.40;;;1.70;;
10295;SDS011;5193;51.032;6.356;2023-10-31T03:37:39;4.53;;;2.10;;
10295;SDS011;5193;51.032;6.356;2023-10-31T03:40:07;2.20;;;1.80;;
10295;SDS011;5193;51.032;6.356;2023-10-31T03:42:33;2.97;;;1.90;;
10295;SDS011;5193;51.032;6.356;2023-10-31T03:45:01;2.53;;;1.83;;
10295;SDS011;5193;51.032;6.356;2023-10-31T03:47:27;2.43;;;2.20;;
10295;SDS011;5193;51.032;6.356;2023-10-31T03:49:59;3.00;;;2.20;;
10295;SDS011;5193;51.032;6.356;2023-10-31T03:52:24;3.23;;;2.40;;
10295;SDS011;5193;51.032;6.356;2023-10-31T03:54:50;5.23;;;2.30;;
10295;SDS011;5193;51.032;6.356;2023-10-31T03:57:17;4.27;;;2.53;;
10295;SDS011;5193;51.032;6.356;2023-10-31T03:59:44;3.50;;;2.43;;
10295;SDS011;5193;51.032;6.356;2023-10-31T04:02:09;2.43;;;2.10;;
10295;SDS011;5193;51.032;6.356;2023-10-31T04:04:35;5.80;;;2.57;;
10295;SDS011;5193;51.032;6.356;2023-10-31T04:07:01;2.90;;;2.47;;
10295;SDS011;5193;51.032;6.356;2023-10-31T04:09:26;3.23;;;2.23;;
10295;SDS011;5193;51.032;6.356;2023-10-31T04:11:52;2.80;;;2.03;;
10295;SDS011;5193;51.032;6.356;2023-10-31T04:14:20;3.33;;;2.40;;
10295;SDS011;5193;51.032;6.356;2023-10-31T04:16:47;3.90;;;2.87;;
10295;SDS011;5193;51.032;6.356;2023-10-31T04:19:13;2.63;;;2.00;;
10295;SDS011;5193;51.032;6.356;2023-10-31T04:21:39;3.87;;;2.53;;
10295;SDS011;5193;51.032;6.356;2023-10-31T04:24:04;2.47;;;2.27;;
10295;SDS011;5193;51.032;6.356;2023-10-31T04:26:30;2.83;;;2.43;;
10295;SDS011;5193;51.032;6.356;2023-10-31T04:28:56;6.17;;;2.87;;
10295;SDS011;5193;51.032;6.356;2023-10-31T04:31:22;4.73;;;2.80;;
10295;SDS011;5193;51.032;6.356;2023-10-31T04:33:49;2.80;;;2.57;;
10295;SDS011;5193;51.032;6.356;2023-10-31T04:36:15;2.47;;;2.00;;
10295;SDS011;5193;51.032;6.356;2023-10-31T04:38:40;4.30;;;2.57;;
10295;SDS011;5193;51.032;6.356;2023-10-31T04:41:07;5.53;;;3.20;;
10295;SDS011;5193;51.032;6.356;2023-10-31T04:43:34;2.53;;;2.33;;
10295;SDS011;5193;51.032;6.356;2023-10-31T04:46:00;4.47;;;2.57;;
10295;SDS011;5193;51.032;6.356;2023-10-31T04:48:25;3.03;;;2.10;;
10295;SDS011;5193;51.032;6.356;2023-10-31T04:50:52;4.20;;;2.50;;
10295;SDS011;5193;51.032;6.356;2023-10-31T04:53:18;3.53;;;2.67;;
10295;SDS011;5193;51.032;6.356;2023-10-31T04:55:44;3.17;;;2.67;;
10295;SDS011;5193;51.032;6.356;2023-10-31T04:58:10;3.77;;;2.43;;
10295;SDS011;5193;51.032;6.356;2023-10-31T05:00:38;3.90;;;2.40;;
10295;SDS011;5193;51.032;6.356;2023-10-31T05:03:05;5.00;;;2.60;;
10295;SDS011;5193;51.032;6.356;2023-10-31T05:05:31;4.33;;;2.27;;
10295;SDS011;5193;51.032;6.356;2023-10-31T05:07:57;3.80;;;2.53;;
10295;SDS011;5193;51.032;6.356;2023-10-31T05:10:23;4.27;;;1.97;;
10295;SDS011;5193;51.032;6.356;2023-10-31T05:12:50;5.37;;;2.40;;
10295;SDS011;5193;51.032;6.356;2023-10-31T05:15:18;2.63;;;2.20;;
10295;SDS011;5193;51.032;6.356;2023-10-31T05:17:47;4.77;;;2.47;;
10295;SDS011;5193;51.032;6.356;2023-10-31T05:20:16;3.00;;;2.20;;
10295;SDS011;5193;51.032;6.356;2023-10-31T05:22:45;2.10;;;1.80;;
10295;SDS011;5193;51.032;6.356;2023-10-31T05:25:12;3.77;;;2.37;;
10295;SDS011;5193;51.032;6.356;2023-10-31T05:27:39;4.37;;;2.10;;
10295;SDS011;5193;51.032;6.356;2023-10-31T05:30:06;5.83;;;2.37;;
10295;SDS011;5193;51.032;6.356;2023-10-31T05:32:32;5.13;;;2.50;;
10295;SDS011;5193;51.032;6.356;2023-10-31T05:34:57;5.20;;;2.30;;
10295;SDS011;5193;51.032;6.356;2023-10-31T05:37:23;2.93;;;2.20;;
10295;SDS011;5193;51.032;6.356;2023-10-31T05:39:50;2.23;;;2.03;;
10295;SDS011;5193;51.032;6.356;2023-10-31T05:42:16;5.67;;;2.37;;
10295;SDS011;5193;51.032;6.356;2023-10-31T05:44:45;2.53;;;2.33;;
10295;SDS011;5193;51.032;6.356;2023-10-31T05:47:11;2.97;;;2.37;;
10295;SDS011;5193;51.032;6.356;2023-10-31T05:49:37;3.63;;;2.57;;
10295;SDS011;5193;51.032;6.356;2023-10-31T05:52:02;4.17;;;2.53;;
10295;SDS011;5193;51.032;6.356;2023-10-31T05:54:28;3.23;;;2.43;;
10295;SDS011;5193;51.032;6.356;2023-10-31T05:56:54;5.13;;;3.13;;
10295;SDS011;5193;51.032;6.356;2023-10-31T05:59:19;3.77;;;2.50;;
10295;SDS011;5193;51.032;6.356;2023-10-31T06:01:45;3.17;;;2.87;;
10295;SDS011;5193;51.032;6.356;2023-10-31T06:04:11;3.87;;;2.97;;
10295;SDS011;5193;51.032;6.356;2023-10-31T06:06:37;3.90;;;3.30;;
10295;SDS011;5193;51.032;6.356;2023-10-31T06:09:03;3.63;;;3.17;;
10295;SDS011;5193;51.032;6.356;2023-10-31T06:11:29;4.47;;;3.13;;
10295;SDS011;5193;51.032;6.356;2023-10-31T06:13:56;4.53;;;3.50;;
10295;SDS011;5193;51.032;6.356;2023-10-31T06:16:21;3.63;;;3.17;;
10295;SDS011;5193;51.032;6.356;2023-10-31T06:18:47;3.80;;;3.33;;
10295;SDS011;5193;51.032;6.356;2023-10-31T06:21:13;3.60;;;3.27;;
10295;SDS011;5193;51.032;6.356;2023-10-31T06:23:38;6.07;;;3.73;;
10295;SDS011;5193;51.032;6.356;2023-10-31T06:26:10;3.53;;;3.23;;
10295;SDS011;5193;51.032;6.356;2023-10-31T06:28:36;3.90;;;3.27;;
10295;SDS011;5193;51.032;6.356;2023-10-31T06:31:02;4.17;;;3.77;;
10295;SDS011;5193;51.032;6.356;2023-10-31T06:33:29;4.63;;;3.63;;
10295;SDS011;5193;51.032;6.356;2023-10-31T06:35:55;5.87;;;3.73;;
10295;SDS011;5193;51.032;6.356;2023-10-31T06:38:20;5.27;;;3.20;;
10295;SDS011;5193;51.032;6.356;2023-10-31T06:40:46;6.73;;;3.20;;
10295;SDS011;5193;51.032;6.356;2023-10-31T06:43:12;6.90;;;3.83;;
10295;SDS011;5193;51.032;6.356;2023-10-31T06:45:37;3.67;;;3.17;;
10295;SDS011;5193;51.032;6.356;2023-10-31T06:48:05;4.83;;;4.03;;
10295;SDS011;5193;51.032;6.356;2023-10-31T06:50:33;3.70;;;3.30;;
10295;SDS011;5193;51.032;6.356;2023-10-31T06:53:01;5.23;;;4.00;;
10295;SDS011;5193;51.032;6.356;2023-10-31T06:55:28;7.63;;;4.33;;
10295;SDS011;5193;51.032;6.356;2023-10-31T06:57:53;8.67;;;4.00;;
10295;SDS011;5193;51.032;6.356;2023-10-31T07:00:19;4.80;;;3.90;;
10295;SDS011;5193;51.032;6.356;2023-10-31T07:02:45;5.10;;;4.03;;
10295;SDS011;5193;51.032;6.356;2023-10-31T07:05:12;6.03;;;3.80;;
10295;SDS011;5193;51.032;6.356;2023-10-31T07:07:39;5.07;;;4.13;;
10295;SDS011;5193;51.032;6.356;2023-10-31T07:10:07;4.20;;;3.53;;
10295;SDS011;5193;51.032;6.356;2023-10-31T07:12:34;5.20;;;3.93;;
10295;SDS011;5193;51.032;6.356;2023-10-31T07:15:00;4.40;;;4.00;;
10295;SDS011;5193;51.032;6.356;2023-10-31T07:17:26;4.63;;;4.20;;
10295;SDS011;5193;51.032;6.356;2023-10-31T07:19:51;4.30;;;3.87;;
10295;SDS011;5193;51.032;6.356;2023-10-31T07:22:17;6.30;;;3.70;;
10295;SDS011;5193;51.032;6.356;2023-10-31T07:24:43;7.40;;;4.40;;
10295;SDS011;5193;51.032;6.356;2023-10-31T07:27:09;4.10;;;3.70;;
10295;SDS011;5193;51.032;6.356;2023-10-31T07:29:34;4.10;;;3.70;;
10295;SDS011;5193;51.032;6.356;2023-10-31T07:32:00;4.50;;;3.63;;
10295;SDS011;5193;51.032;6.356;2023-10-31T07:34:26;5.40;;;3.80;;
10295;SDS011;5193;51.032;6.356;2023-10-31T07:36:54;5.27;;;3.57;;
10295;SDS011;5193;51.032;6.356;2023-10-31T07:39:19;6.07;;;4.77;;
10295;SDS011;5193;51.032;6.356;2023-10-31T07:41:45;6.47;;;4.13;;
10295;SDS011;5193;51.032;6.356;2023-10-31T07:44:11;5.30;;;4.00;;
10295;SDS011;5193;51.032;6.356;2023-10-31T07:46:37;5.70;;;5.03;;
10295;SDS011;5193;51.032;6.356;2023-10-31T07:49:06;5.73;;;3.87;;
10295;SDS011;5193;51.032;6.356;2023-10-31T07:51:31;5.60;;;3.80;;
10295;SDS011;5193;51.032;6.356;2023-10-31T07:53:58;5.90;;;3.93;;
10295;SDS011;5193;51.032;6.356;2023-10-31T07:56:27;5.40;;;3.50;;
10295;SDS011;5193;51.032;6.356;2023-10-31T07:58:57;4.13;;;3.50;;
10295;SDS011;5193;51.032;6.356;2023-10-31T08:01:23;5.03;;;4.20;;
10295;SDS011;5193;51.032;6.356;2023-10-31T08:03:49;8.10;;;4.00;;
10295;SDS011;5193;51.032;6.356;2023-10-31T08:06:16;5.37;;;4.10;;
10295;SDS011;5193;51.032;6.356;2023-10-31T08:08:42;6.77;;;4.50;;
10295;SDS011;5193;51.032;6.356;2023-10-31T08:11:08;6.27;;;4.17;;
10295;SDS011;5193;51.032;6.356;2023-10-31T08:13:39;5.60;;;4.40;;
10295;SDS011;5193;51.032;6.356;2023-10-31T08:16:05;6.07;;;4.43;;
10295;SDS011;5193;51.032;6.356;2023-10-31T08:18:32;6.73;;;4.30;;
10295;SDS011;5193;51.032;6.356;2023-10-31T08:20:58;6.03;;;4.63;;
10295;SDS011;5193;51.032;6.356;2023-10-31T08:23:24;7.87;;;4.30;;
10295;SDS011;5193;51.032;6.356;2023-10-31T08:25:50;5.93;;;4.10;;
10295;SDS011;5193;51.032;6.356;2023-10-31T08:28:16;6.60;;;3.90;;
10295;SDS011;5193;51.032;6.356;2023-10-31T08:30:43;4.63;;;3.87;;
10295;SDS011;5193;51.032;6.356;2023-10-31T08:33:09;5.80;;;3.83;;
10295;SDS011;5193;51.032;6.356;2023-10-31T08:35:34;5.97;;;3.60;;
10295;SDS011;5193;51.032;6.356;2023-10-31T08:38:00;7.50;;;3.60;;
10295;SDS011;5193;51.032;6.356;2023-10-31T08:40:26;6.37;;;4.33;;
10295;SDS011;5193;51.032;6.356;2023-10-31T08:42:51;5.17;;;3.80;;
10295;SDS011;5193;51.032;6.356;2023-10-31T08:45:17;4.63;;;2.97;;
10295;SDS011;5193;51.032;6.356;2023-10-31T08:47:44;6.10;;;3.13;;
10295;SDS011;5193;51.032;6.356;2023-10-31T08:50:10;4.63;;;3.20;;
10295;SDS011;5193;51.032;6.356;2023-10-31T08:52:36;6.80;;;2.80;;
10295;SDS011;5193;51.032;6.356;2023-10-31T08:55:02;3.40;;;2.90;;
10295;SDS011;5193;51.032;6.356;2023-10-31T08:57:29;4.87;;;2.80;;
10295;SDS011;5193;51.032;6.356;2023-10-31T08:59:55;4.73;;;2.53;;
10295;SDS011;5193;51.032;6.356;2023-10-31T09:02:20;7.30;;;3.07;;
10295;SDS011;5193;51.032;6.356;2023-10-31T09:04:46;3.80;;;2.53;;
10295;SDS011;5193;51.032;6.356;2023-10-31T09:07:12;3.93;;;2.30;;
10295;SDS011;5193;51.032;6.356;2023-10-31T09:09:39;3.20;;;2.50;;
10295;SDS011;5193;51.032;6.356;2023-10-31T09:12:05;5.73;;;2.90;;
10295;SDS011;5193;51.032;6.356;2023-10-31T09:14:33;3.23;;;2.70;;
10295;SDS011;5193;51.032;6.356;2023-10-31T09:17:00;3.63;;;2.37;;
10295;SDS011;5193;51.032;6.356;2023-10-31T09:19:26;3.53;;;2.23;;
10295;SDS011;5193;51.032;6.356;2023-10-31T09:21:55;2.80;;;2.50;;
10295;SDS011;5193;51.032;6.356;2023-10-31T09:24:21;3.53;;;2.80;;
10295;SDS011;5193;51.032;6.356;2023-10-31T09:26:48;4.57;;;2.40;;
10295;SDS011;5193;51.032;6.356;2023-10-31T09:29:14;3.07;;;2.77;;
10295;SDS011;5193;51.032;6.356;2023-10-31T09:31:40;4.03;;;2.43;;
10295;SDS011;5193;51.032;6.356;2023-10-31T09:34:05;2.50;;;2.23;;
10295;SDS011;5193;51.032;6.356;2023-10-31T09:36:32;2.70;;;2.30;;
10295;SDS011;5193;51.032;6.356;2023-10-31T09:39:00;3.30;;;2.70;;
10295;SDS011;5193;51.032;6.356;2023-10-31T09:41:26;2.97;;;2.27;;
10295;SDS011;5193;51.032;6.356;2023-10-31T09:43:52;4.53;;;2.50;;
10295;SDS011;5193;51.032;6.356;2023-10-31T09:46:21;3.33;;;2.20;;
10295;SDS011;5193;51.032;6.356;2023-10-31T09:48:47;2.40;;;2.20;;
10295;SDS011;5193;51.032;6.356;2023-10-31T09:51:13;7.33;;;2.10;;
10295;SDS011;5193;51.032;6.356;2023-10-31T09:53:39;2.40;;;2.10;;
10295;SDS011;5193;51.032;6.356;2023-10-31T09:56:09;3.23;;;2.20;;
10295;SDS011;5193;51.032;6.356;2023-10-31T09:58:35;3.27;;;2.20;;
10295;SDS011;5193;51.032;6.356;2023-10-31T10:01:01;3.87;;;1.90;;
10295;SDS011;5193;51.032;6.356;2023-10-31T10:03:28;7.23;;;2.00;;
10295;SDS011;5193;51.032;6.356;2023-10-31T10:05:54;4.57;;;2.33;;
10295;SDS011;5193;51.032;6.356;2023-10-31T10:08:20;4.17;;;2.37;;
10295;SDS011;5193;51.032;6.356;2023-10-31T10:10:47;2.37;;;1.80;;
10295;SDS011;5193;51.032;6.356;2023-10-31T10:13:22;5.27;;;2.00;;
10295;SDS011;5193;51.032;6.356;2023-10-31T10:15:50;4.47;;;2.20;;
10295;SDS011;5193;51.032;6.356;2023-10-31T10:18:24;2.87;;;2.13;;
10295;SDS011;5193;51.032;6.356;2023-10-31T10:21:04;2.30;;;2.00;;
10295;SDS011;5193;51.032;6.356;2023-10-31T10:23:33;2.70;;;2.17;;
10295;SDS011;5193;51.032;6.356;2023-10-31T10:25:59;2.10;;;1.70;;
10295;SDS011;5193;51.032;6.356;2023-10-31T10:28:28;5.20;;;2.00;;
10295;SDS011;5193;51.032;6.356;2023-10-31T10:30:54;3.40;;;2.00;;
10295;SDS011;5193;51.032;6.356;2023-10-31T10:33:20;2.80;;;1.90;;
10295;SDS011;5193;51.032;6.356;2023-10-31T10:35:47;2.17;;;1.43;;
10295;SDS011;5193;51.032;6.356;2023-10-31T10:38:17;3.57;;;1.40;;
10295;SDS011;5193;51.032;6.356;2023-10-31T10:40:47;3.27;;;1.60;;
10295;SDS011;5193;51.032;6.356;2023-10-31T10:43:23;1.50;;;1.40;;
10295;SDS011;5193;51.032;6.356;2023-10-31T10:45:54;3.30;;;1.20;;
10295;SDS011;5193;51.032;6.356;2023-10-31T10:48:25;2.33;;;1.47;;
10295;SDS011;5193;51.032;6.356;2023-10-31T10:51:28;5.03;;;1.60;;
10295;SDS011;5193;51.032;6.356;2023-10-31T10:59:49;2.10;;;1.40;;
10295;SDS011;5193;51.032;6.356;2023-10-31T11:02:18;1.63;;;1.40;;
10295;SDS011;5193;51.032;6.356;2023-10-31T11:04:49;2.77;;;1.40;;
10295;SDS011;5193;51.032;6.356;2023-10-31T11:07:16;1.97;;;1.40;;
10295;SDS011;5193;51.032;6.356;2023-10-31T11:09:53;2.03;;;1.27;;
10295;SDS011;5193;51.032;6.356;2023-10-31T11:12:24;3.77;;;1.30;;
10295;SDS011;5193;51.032;6.356;2023-10-31T11:14:57;2.60;;;1.43;;
10295;SDS011;5193;51.032;6.356;2023-10-31T11:17:28;3.47;;;1.67;;
10295;SDS011;5193;51.032;6.356;2023-10-31T11:19:59;2.30;;;1.23;;
10295;SDS011;5193;51.032;6.356;2023-10-31T11:22:25;2.70;;;1.23;;
10295;SDS011;5193;51.032;6.356;2023-10-31T11:25:03;2.23;;;1.40;;
10295;SDS011;5193;51.032;6.356;2023-10-31T11:27:29;3.57;;;1.10;;
10295;SDS011;5193;51.032;6.356;2023-10-31T11:30:06;3.83;;;1.10;;
10295;SDS011;5193;51.032;6.356;2023-10-31T11:32:59;1.57;;;1.03;;
10295;SDS011;5193;51.032;6.356;2023-10-31T11:35:39;1.63;;;1.13;;
10295;SDS011;5193;51.032;6.356;2023-10-31T11:38:11;3.60;;;1.50;;
10295;SDS011;5193;51.032;6.356;2023-10-31T11:40:59;3.20;;;1.30;;
10295;SDS011;5193;51.032;6.356;2023-10-31T11:43:25;1.47;;;1.30;;
10295;SDS011;5193;51.032;6.356;2023-10-31T11:45:53;1.70;;;0.90;;
10295;SDS011;5193;51.032;6.356;2023-10-31T11:49:08;5.80;;;1.40;;
10295;SDS011;5193;51.032;6.356;2023-10-31T11:51:20;2.30;;;1.10;;
10295;SDS011;5193;51.032;6.356;2023-10-31T11:53:47;3.47;;;1.23;;
10295;SDS011;5193;51.032;6.356;2023-10-31T11:56:20;2.40;;;1.20;;
10295;SDS011;5193;51.032;6.356;2023-10-31T11:59:05;2.27;;;1.13;;
10295;SDS011;5193;51.032;6.356;2023-10-31T12:01:32;3.33;;;1.30;;
10295;SDS011;5193;51.032;6.356;2023-10-31T12:03:58;3.53;;;1.20;;
10295;SDS011;5193;51.032;6.356;2023-10-31T12:06:23;3.17;;;1.27;;
10295;SDS011;5193;51.032;6.356;2023-10-31T12:08:50;3.50;;;1.37;;
10295;SDS011;5193;51.032;6.356;2023-10-31T12:11:17;4.20;;;1.10;;
10295;SDS011;5193;51.032;6.356;2023-10-31T12:13:58;1.83;;;0.90;;
10295;SDS011;5193;51.032;6.356;2023-10-31T12:16:27;4.00;;;1.40;;
10295;SDS011;5193;51.032;6.356;2023-10-31T12:18:54;2.23;;;1.00;;
10295;SDS011;5193;51.032;6.356;2023-10-31T12:21:42;2.20;;;0.93;;
10295;SDS011;5193;51.032;6.356;2023-10-31T12:24:14;3.47;;;1.00;;
10295;SDS011;5193;51.032;6.356;2023-10-31T12:26:44;2.07;;;1.10;;
10295;SDS011;5193;51.032;6.356;2023-10-31T12:31:48;3.20;;;0.97;;
10295;SDS011;5193;51.032;6.356;2023-10-31T12:34:20;3.67;;;1.17;;
10295;SDS011;5193;51.032;6.356;2023-10-31T12:36:49;3.07;;;1.00;;
10295;SDS011;5193;51.032;6.356;2023-10-31T12:39:16;2.90;;;1.10;;
10295;SDS011;5193;51.032;6.356;2023-10-31T12:41:45;2.63;;;1.00;;
10295;SDS011;5193;51.032;6.356;2023-10-31T12:44:24;3.07;;;1.20;;
10295;SDS011;5193;51.032;6.356;2023-10-31T12:46:52;6.90;;;1.30;;
10295;SDS011;5193;51.032;6.356;2023-10-31T12:49:20;4.37;;;1.20;;
10295;SDS011;5193;51.032;6.356;2023-10-31T12:51:59;4.20;;;1.27;;
10295;SDS011;5193;51.032;6.356;2023-10-31T12:54:38;4.47;;;1.00;;
10295;SDS011;5193;51.032;6.356;2023-10-31T13:00:34;2.97;;;1.10;;
10295;SDS011;5193;51.032;6.356;2023-10-31T13:03:02;2.30;;;1.00;;
10295;SDS011;5193;51.032;6.356;2023-10-31T13:05:33;4.47;;;1.60;;
10295;SDS011;5193;51.032;6.356;2023-10-31T13:07:59;3.60;;;1.07;;
10295;SDS011;5193;51.032;6.356;2023-10-31T13:10:26;5.10;;;0.97;;
10295;SDS011;5193;51.032;6.356;2023-10-31T13:12:52;2.20;;;1.30;;
10295;SDS011;5193;51.032;6.356;2023-10-31T13:15:19;5.43;;;1.50;;
10295;SDS011;5193;51.032;6.356;2023-10-31T13:17:51;5.40;;;1.10;;
10295;SDS011;5193;51.032;6.356;2023-10-31T13:20:18;4.83;;;1.20;;
10295;SDS011;5193;51.032;6.356;2023-10-31T13:22:45;6.17;;;1.50;;
10295;SDS011;5193;51.032;6.356;2023-10-31T13:25:11;5.43;;;1.27;;
10295;SDS011;5193;51.032;6.356;2023-10-31T13:27:42;2.70;;;1.43;;
10295;SDS011;5193;51.032;6.356;2023-10-31T13:30:09;6.23;;;1.50;;
10295;SDS011;5193;51.032;6.356;2023-10-31T13:32:37;8.83;;;1.30;;
10295;SDS011;5193;51.032;6.356;2023-10-31T13:35:04;4.17;;;1.43;;
10295;SDS011;5193;51.032;6.356;2023-10-31T13:37:30;4.20;;;1.27;;
10295;SDS011;5193;51.032;6.356;2023-10-31T13:39:57;4.70;;;1.13;;
10295;SDS011;5193;51.032;6.356;2023-10-31T13:42:24;2.50;;;1.10;;
10295;SDS011;5193;51.032;6.356;2023-10-31T13:44:53;3.13;;;1.10;;
10295;SDS011;5193;51.032;6.356;2023-10-31T13:47:19;2.23;;;1.10;;
10295;SDS011;5193;51.032;6.356;2023-10-31T13:49:46;4.83;;;1.23;;
10295;SDS011;5193;51.032;6.356;2023-10-31T13:52:15;9.57;;;1.30;;
10295;SDS011;5193;51.032;6.356;2023-10-31T13:54:40;11.37;;;1.23;;
10295;SDS011;5193;51.032;6.356;2023-10-31T13:57:06;5.13;;;1.20;;
10295;SDS011;5193;51.032;6.356;2023-10-31T13:59:32;2.63;;;1.13;;
10295;SDS011;5193;51.032;6.356;2023-10-31T14:02:02;4.00;;;1.87;;
10295;SDS011;5193;51.032;6.356;2023-10-31T14:04:28;3.97;;;1.40;;
10295;SDS011;5193;51.032;6.356;2023-10-31T14:06:56;3.77;;;0.97;;
10295;SDS011;5193;51.032;6.356;2023-10-31T14:09:25;2.57;;;1.20;;
10295;SDS011;5193;51.032;6.356;2023-10-31T14:11:51;4.53;;;1.10;;
10295;SDS011;5193;51.032;6.356;2023-10-31T14:14:16;3.40;;;1.03;;
10295;SDS011;5193;51.032;6.356;2023-10-31T14:16:44;2.90;;;1.10;;
10295;SDS011;5193;51.032;6.356;2023-10-31T14:19:11;3.17;;;1.17;;
10295;SDS011;5193;51.032;6.356;2023-10-31T14:21:38;6.27;;;1.40;;
10295;SDS011;5193;51.032;6.356;2023-10-31T14:24:03;5.63;;;1.67;;
10295;SDS011;5193;51.032;6.356;2023-10-31T14:26:33;3.73;;;1.20;;
10295;SDS011;5193;51.032;6.356;2023-10-31T14:28:59;2.60;;;1.50;;
10295;SDS011;5193;51.032;6.356;2023-10-31T14:31:25;3.37;;;1.33;;
10295;SDS011;5193;51.032;6.356;2023-10-31T14:33:51;7.40;;;1.80;;
10295;SDS011;5193;51.032;6.356;2023-10-31T14:36:17;4.40;;;1.50;;
10295;SDS011;5193;51.032;6.356;2023-10-31T14:38:42;4.60;;;1.30;;
10295;SDS011;5193;51.032;6.356;2023-10-31T14:41:08;6.87;;;1.80;;
10295;SDS011;5193;51.032;6.356;2023-10-31T14:43:34;3.87;;;1.50;;
10295;SDS011;5193;51.032;6.356;2023-10-31T14:46:00;4.77;;;1.43;;
10295;SDS011;5193;51.032;6.356;2023-10-31T14:48:29;4.50;;;1.60;;
10295;SDS011;5193;51.032;6.356;2023-10-31T14:50:55;3.20;;;1.30;;
10295;SDS011;5193;51.032;6.356;2023-10-31T14:53:22;4.60;;;1.40;;
10295;SDS011;5193;51.032;6.356;2023-10-31T14:55:48;3.17;;;1.70;;
10295;SDS011;5193;51.032;6.356;2023-10-31T14:58:14;7.23;;;1.60;;
10295;SDS011;5193;51.032;6.356;2023-10-31T15:00:43;2.33;;;1.67;;
10295;SDS011;5193;51.032;6.356;2023-10-31T15:03:09;3.77;;;1.30;;
10295;SDS011;5193;51.032;6.356;2023-10-31T15:05:35;4.30;;;1.20;;
10295;SDS011;5193;51.032;6.356;2023-10-31T15:08:08;3.93;;;1.13;;
10295;SDS011;5193;51.032;6.356;2023-10-31T15:10:33;3.43;;;1.13;;
10295;SDS011;5193;51.032;6.356;2023-10-31T15:13:01;2.77;;;1.10;;
10295;SDS011;5193;51.032;6.356;2023-10-31T15:15:27;3.80;;;1.40;;